createdAt,value
2022-12-31T00:09:56.744Z,12.2
2022-12-31T00:19:58.595Z,12.3
2022-12-31T00:30:04.360Z,12.4
2022-12-31T00:40:02.605Z,12.5
2022-12-31T00:50:04.421Z,12.5
2022-12-31T01:00:06.903Z,12.3
2022-12-31T01:10:08.886Z,12.2
2022-12-31T01:30:12.581Z,11.9
2022-12-31T01:40:14.794Z,12
2022-12-31T01:50:16.785Z,12.1
2022-12-31T02:00:19.025Z,12.2
2022-12-31T02:10:21.452Z,12.3
2022-12-31T02:20:23.912Z,12.5
2022-12-31T02:30:26.304Z,12.7
2022-12-31T02:40:28.476Z,13.2
2022-12-31T02:50:30.799Z,13.6
2022-12-31T03:00:33.071Z,13.9
2022-12-31T03:10:35.569Z,14.2
2022-12-31T03:20:37.337Z,14.5
2022-12-31T03:30:39.104Z,14.6
2022-12-31T03:40:41.080Z,14.3
2022-12-31T03:50:42.794Z,14.1
2022-12-31T04:00:44.784Z,14
2022-12-31T04:10:47.059Z,14
2022-12-31T04:20:49.307Z,13.7
2022-12-31T04:30:51.462Z,13.5
2022-12-31T04:40:53.222Z,13.3
2022-12-31T04:50:55.947Z,13.7
2022-12-31T05:00:58.509Z,14.2
2022-12-31T05:11:00.694Z,14.5
2022-12-31T05:21:03.385Z,15
2022-12-31T05:31:05.590Z,15.1
2022-12-31T05:41:07.434Z,15.4
2022-12-31T05:51:10.111Z,15.4
2022-12-31T06:01:12.149Z,15.7
2022-12-31T06:11:13.991Z,15.8
2022-12-31T06:21:15.862Z,15.8
2022-12-31T06:31:18.036Z,15.5
2022-12-31T06:41:20.268Z,15.8
2022-12-31T06:51:22.232Z,15.9
2022-12-31T07:01:24.176Z,15.9
2022-12-31T07:11:26.390Z,16
2022-12-31T07:21:28.990Z,16
2022-12-31T07:31:30.929Z,16
2022-12-31T07:41:32.877Z,16
2022-12-31T07:51:34.912Z,16.1
2022-12-31T08:01:37.494Z,16.1
2022-12-31T08:11:39.355Z,16.1
2022-12-31T08:21:41.488Z,16.1
2022-12-31T09:11:52.998Z,16.5
2022-12-31T09:52:00.817Z,16.3
2022-12-31T10:02:02.671Z,16.2
2022-12-31T10:42:12.332Z,16.5
2022-12-31T10:52:14.772Z,16.5
2022-12-31T11:02:17.388Z,16.7
2022-12-31T11:12:18.830Z,16.7
2022-12-31T11:32:23.156Z,17
2022-12-31T11:52:28.114Z,16.9
2022-12-31T12:32:36.915Z,16.5
2022-12-31T12:52:41.186Z,16
2022-12-31T13:02:43.540Z,15.4
2022-12-31T13:13:21.874Z,15.4
2022-12-31T13:22:47.604Z,15.6
2022-12-31T13:32:50.073Z,15.8
2022-12-31T13:42:51.776Z,16.1
2022-12-31T13:52:53.962Z,16.3
2022-12-31T14:02:56.430Z,16.2
2022-12-31T14:12:58.253Z,15.9
2022-12-31T14:53:16.744Z,16.1
2022-12-31T15:13:21.934Z,15.9
2022-12-31T15:23:24.648Z,15.6
2022-12-31T15:33:27.295Z,15.5
2022-12-31T15:53:31.375Z,15.2
2022-12-31T16:03:33.472Z,15.2
2022-12-31T16:13:35.271Z,15.4
2022-12-31T16:23:42.339Z,15.6
2022-12-31T16:33:39.853Z,15.9
2022-12-31T16:43:42.513Z,15.9
2022-12-31T16:53:44.480Z,15.9
2022-12-31T17:03:47.131Z,16.1
2022-12-31T17:13:49.561Z,16
2022-12-31T17:23:51.593Z,16
2022-12-31T17:43:55.693Z,15.8
2022-12-31T17:53:58.287Z,15.9
2022-12-31T18:04:00.576Z,15.8
2022-12-31T18:14:02.697Z,15.9
2022-12-31T18:24:05.031Z,15.7
2022-12-31T18:44:09.385Z,15.5
2022-12-31T18:54:11.129Z,15.5
2022-12-31T19:04:12.921Z,15.5
2022-12-31T19:14:15.634Z,15.4
2022-12-31T19:24:17.976Z,15.5
2022-12-31T19:34:20.649Z,15.4
2022-12-31T19:44:22.413Z,15.5
2022-12-31T19:54:24.405Z,15.5
2022-12-31T20:04:26.737Z,15.4
2022-12-31T20:14:29.393Z,15.5
2022-12-31T20:24:31.086Z,15.6
2022-12-31T20:34:33.515Z,15.7
2022-12-31T20:44:35.420Z,15.7
2022-12-31T20:54:37.871Z,15.8
2022-12-31T21:04:40.172Z,15.9
2022-12-31T21:14:44.801Z,16
2022-12-31T21:24:44.416Z,15.9
2022-12-31T21:35:00.367Z,16
2022-12-31T21:44:49.218Z,15.9
2022-12-31T21:54:51.713Z,15.8
2022-12-31T22:05:02.199Z,16.1
2022-12-31T22:15:15.356Z,16.2
2022-12-31T22:24:58.075Z,16.1
2022-12-31T22:35:00.377Z,16.1
2022-12-31T22:45:02.225Z,16.2
2022-12-31T22:55:04.618Z,16.2
2022-12-31T23:05:15.047Z,16.4
2022-12-31T23:15:09.260Z,16.4
2022-12-31T23:25:11.422Z,16.4
2022-12-31T23:35:13.748Z,16.3
2022-12-31T23:45:15.931Z,16.3
2022-12-31T23:55:18.545Z,16.2
